This is the latest recevied weather packets stored in our database for station/object DJ3OW-13. If no packets are shown the sender has not sent any weather packets the latest 10 day(s).
| Time | Temp. | Humidity | Pressure | Rain* | Wind** | Luminosity | Snow |
|---|---|---|---|---|---|---|---|
| 1777425057 | 6.11° C | 63% | 1028.2 hPa | 0 mm | - | - | - |
| 1777424456 | 6.67° C | 63% | 1028.2 hPa | 0 mm | - | - | - |
| 1777419639 | 7.22° C | 63% | 1028.3 hPa | 0 mm | - | - | - |
| 1777417231 | 6.11° C | 68% | 1028 hPa | 0 mm | - | - | - |
| 1777416629 | 6.11° C | 66% | 1028 hPa | 0 mm | - | - | - |
| 1777415425 | 6.67° C | 65% | 1027.8 hPa | 0 mm | - | - | - |
| 1777398027 | 15° C | 36% | 1026.3 hPa | 0 mm | - | - | - |
| 1777397425 | 15° C | 36% | 1026.4 hPa | 0 mm | - | - | - |
| 1777396221 | 15.56° C | 35% | 1026.3 hPa | 0 mm | - | - | - |
| 1777391485 | 16.67° C | 31% | 1026.3 hPa | 0 mm | - | - | - |
| 1777390863 | 16.67° C | 32% | 1026.2 hPa | 0 mm | - | - | - |
| 1777390261 | 16.11° C | 32% | 1026.2 hPa | 0 mm | - | - | - |
| 1777386649 | 16.11° C | 36% | 1026.5 hPa | 0 mm | - | - | - |
| 1777385445 | 16.67° C | 39% | 1026.6 hPa | 0 mm | - | - | - |
| 1777381231 | 15.56° C | 41% | 1026.7 hPa | 0 mm | - | - | - |
| 1777377639 | 14.44° C | 48% | 1026.6 hPa | 0 mm | - | - | - |
| 1777371056 | 13.33° C | 53% | 1026.3 hPa | 0 mm | - | - | - |
| 1777363230 | 11.11° C | 61% | 1026 hPa | 0 mm | - | - | - |
| 1777359016 | 8.89° C | 69% | 1025.5 hPa | 0 mm | - | - | - |
| 1777354260 | 6.67° C | 78% | 1024.6 hPa | 0 mm | - | - | - |
| 1777344628 | 5.56° C | 80% | 1024.2 hPa | 0 mm | - | - | - |
| 1777338667 | 6.67° C | 74% | 1024.2 hPa | 0 mm | - | - | - |
| 1777333851 | 7.22° C | 72% | 1023.8 hPa | 0 mm | - | - | - |
| 1777333250 | 7.22° C | 73% | 1023.9 hPa | 0 mm | - | - | - |
| 1777332045 | 7.22° C | 74% | 1023.9 hPa | 0 mm | - | - | - |
* Rain latest hour (hover to see other rain measurements)
** Current wind speed in m/s (hover to see current wind gust speed)